Check out our new BloomSky Weather System.

Active alerts

Fort Bend, TX
  Details for Fort Bend, TX River Flood Warning  +1 additional alert
Houston, TX
  Details for Houston, TX Wind Advisory
Galveston, TX
  Details for Galveston, TX Wind Advisory


Thunder radar  blitzortung!


Rain radar more information rain snow radar


Visit our other weather sites:

Template documentation
and downloads

And another site



Weather Underground History page Text

Daily Summary for May 6, 2017 Units:  English    Metric   Both
« Previous Day
Next Day »
Daily Weekly Monthly Yearly Custom
  High: Low: Average:
Temperature: TemperatureF °F 52.7 °F 70.6 °F
Dew Point: DewpointF °F 50.2 °F 53.2 °F
Humidity: Humidity % 30 % 59 %
Wind Speed: WindSpeedMPH mph 0.0 mph 1 mph
Wind Gust: WindSpeedGustMPH mph - -
Wind:- - SSW
Pressure: PressureIn in 29.88 in -
Precipitation: 0.00 in    
Historical Graphs
 
 
Tabular Data for May 6, 2017
Time Temperature Dew Point Pressure Wind Wind Speed Wind Gust Humidity Rainfall Rate (Hourly)
TemperatureF °F DewpointF °F PressureIn in Calm     Humidity % HourlyPrecipIn in
00:02 58.6 °F 50.4 °F 29.97 in Calm     74 % 0.00 in
00:07 58.6 °F 50.7 °F 29.97 in Calm     75 % 0.00 in
00:12 58.6 °F 50.7 °F 29.97 in Calm     75 % 0.00 in
00:17 58.3 °F 50.7 °F 29.97 in Calm     76 % 0.00 in
00:22 57.9 °F 50.7 °F 29.97 in Calm     77 % 0.00 in
00:27 57.9 °F 51.1 °F 29.97 in Calm     78 % 0.00 in
00:32 57.7 °F 50.9 °F 29.97 in Calm     78 % 0.00 in
00:37 57.9 °F 52.2 °F 29.97 in Calm     81 % 0.00 in
00:42 58.5 °F 52.3 °F 29.97 in Calm   1.0 mph 80 % 0.00 in
00:47 58.3 °F 52.2 °F 29.97 in Calm   1.0 mph 80 % 0.00 in
00:52 58.3 °F 52.5 °F 29.97 in Calm   1.0 mph 81 % 0.00 in
00:57 58.3 °F 52.5 °F 29.97 in Calm     81 % 0.00 in
01:02 57.9 °F 52.2 °F 29.97 in Calm     81 % 0.00 in
01:08 57.9 °F 52.5 °F 29.97 in Calm     82 % 0.00 in
01:13 57.7 °F 52.7 °F 29.97 in Calm     83 % 0.00 in
01:18 57.9 °F 52.7 °F 29.97 in Calm     83 % 0.00 in
01:23 57.7 °F 52.7 °F 29.97 in Calm     83 % 0.00 in
01:28 57.7 °F 52.7 °F 29.97 in Calm     83 % 0.00 in
01:33 57.6 °F 52.5 °F 29.98 in Calm     83 % 0.00 in
01:38 57.6 °F 52.7 °F 29.98 in Calm     84 % 0.00 in
01:43 57.4 °F 52.5 °F 29.97 in Calm     84 % 0.00 in
01:48 57.0 °F 52.2 °F 29.97 in Calm     84 % 0.00 in
01:53 56.8 °F 52.3 °F 29.97 in Calm     85 % 0.00 in
01:58 56.7 °F 52.2 °F 29.97 in Calm     85 % 0.00 in
02:03 56.5 °F 52.0 °F 29.97 in Calm     85 % 0.00 in
02:08 56.5 °F 52.3 °F 29.96 in Calm     86 % 0.00 in
02:13 56.5 °F 52.3 °F 29.96 in Calm     86 % 0.00 in
02:18 56.5 °F 52.7 °F 29.96 in Calm     87 % 0.00 in
02:23 56.5 °F 52.7 °F 29.96 in Calm   1.0 mph 87 % 0.00 in
02:28 56.1 °F 52.3 °F 29.96 in Calm   1.0 mph 87 % 0.00 in
02:33 56.1 °F 52.3 °F 29.96 in Calm   1.0 mph 87 % 0.00 in
02:38 55.9 °F 52.2 °F 29.96 in Calm     87 % 0.00 in
02:40 55.9 °F 52.2 °F 29.96 in Calm     87 % 0.00 in
02:45 55.6 °F 51.4 °F 29.96 in Calm     86 % 0.00 in
02:50 55.0 °F 51.6 °F 29.96 in Calm     88 % 0.00 in
02:55 55.4 °F 52.0 °F 29.96 in Calm     88 % 0.00 in
03:00 55.4 °F 52.0 °F 29.96 in Calm     88 % 0.00 in
03:05 55.4 °F 52.2 °F 29.96 in Calm     89 % 0.00 in
03:10 55.4 °F 52.2 °F 29.96 in Calm     89 % 0.00 in
03:15 55.4 °F 52.2 °F 29.96 in Calm     89 % 0.00 in
03:20 55.2 °F 52.0 °F 29.96 in Calm     89 % 0.00 in
03:25 55.2 °F 52.0 °F 29.96 in Calm     89 % 0.00 in
03:30 55.2 °F 52.0 °F 29.96 in Calm     89 % 0.00 in
03:33 55.0 °F 51.8 °F 29.96 in Calm     89 % 0.00 in
03:38 54.9 °F 51.6 °F 29.96 in Calm     89 % 0.00 in
03:43 54.7 °F 51.4 °F 29.96 in Calm     89 % 0.00 in
03:48 54.7 °F 51.8 °F 29.96 in Calm     90 % 0.00 in
03:53 54.7 °F 51.4 °F 29.96 in Calm     89 % 0.00 in
03:58 54.7 °F 51.4 °F 29.96 in Calm     89 % 0.00 in
04:03 54.5 °F 51.6 °F 29.96 in Calm     90 % 0.00 in
04:08 54.3 °F 51.4 °F 29.96 in Calm     90 % 0.00 in
04:13 54.5 °F 52.0 °F 29.96 in NE 1.0 mph 1.0 mph 91 % 0.00 in
04:18 55.0 °F 52.5 °F 29.96 in Calm   1.0 mph 91 % 0.00 in
04:23 55.0 °F 52.2 °F 29.96 in Calm   1.0 mph 90 % 0.00 in
04:28 54.9 °F 52.0 °F 29.96 in Calm   1.0 mph 90 % 0.00 in
04:33 54.5 °F 51.6 °F 29.96 in Calm   1.0 mph 90 % 0.00 in
04:38 54.1 °F 51.3 °F 29.96 in Calm     90 % 0.00 in
04:43 54.0 °F 51.1 °F 29.96 in Calm     90 % 0.00 in
04:48 54.0 °F 51.4 °F 29.96 in Calm     91 % 0.00 in
04:49 53.8 °F 51.3 °F 29.96 in Calm     91 % 0.00 in
04:54 54.0 °F 51.4 °F 29.96 in Calm     91 % 0.00 in
04:59 54.0 °F 51.4 °F 29.96 in Calm     91 % 0.00 in
05:04 53.8 °F 51.3 °F 29.96 in NNW 1.0 mph   91 % 0.00 in
05:09 54.0 °F 51.4 °F 29.96 in Calm   1.0 mph 91 % 0.00 in
05:14 54.0 °F 51.4 °F 29.96 in Calm   1.0 mph 91 % 0.00 in
05:19 54.0 °F 51.4 °F 29.96 in Calm   2.0 mph 91 % 0.00 in
05:24 53.8 °F 51.3 °F 29.96 in Calm   2.0 mph 91 % 0.00 in
05:29 53.8 °F 51.3 °F 29.96 in Calm   2.0 mph 91 % 0.00 in
05:34 53.4 °F 50.9 °F 29.97 in Calm   2.0 mph 91 % 0.00 in
05:39 53.1 °F 50.5 °F 29.97 in Calm     91 % 0.00 in
05:44 52.9 °F 50.4 °F 29.97 in Calm     91 % 0.00 in
05:49 52.9 °F 50.5 °F 29.97 in Calm     92 % 0.00 in
05:54 52.9 °F 50.5 °F 29.97 in Calm     92 % 0.00 in
05:59 52.9 °F 50.5 °F 29.96 in Calm     92 % 0.00 in
06:04 52.9 °F 50.5 °F 29.96 in Calm     92 % 0.00 in
06:09 52.9 °F 50.9 °F 29.97 in Calm     93 % 0.00 in
06:14 53.1 °F 51.1 °F 29.97 in Calm     93 % 0.00 in
06:19 53.1 °F 51.1 °F 29.97 in Calm     93 % 0.00 in
06:24 53.1 °F 51.1 °F 29.97 in Calm     93 % 0.00 in
06:29 52.9 °F 50.9 °F 29.98 in Calm   1.0 mph 93 % 0.00 in
06:34 52.9 °F 50.9 °F 29.98 in Calm   1.0 mph 93 % 0.00 in
06:39 53.1 °F 51.1 °F 29.98 in Calm   1.0 mph 93 % 0.00 in
06:44 53.1 °F 51.1 °F 29.99 in Calm     93 % 0.00 in
06:49 52.9 °F 50.9 °F 29.99 in Calm     93 % 0.00 in
06:54 52.7 °F 50.7 °F 29.99 in Calm     93 % 0.00 in
06:59 52.7 °F 50.7 °F 29.99 in Calm     93 % 0.00 in
07:00 52.7 °F 50.7 °F 29.99 in Calm     93 % 0.00 in
07:05 52.9 °F 51.3 °F 29.99 in Calm     94 % 0.00 in
07:06 52.9 °F 51.3 °F 29.99 in Calm     94 % 0.00 in
07:11 52.9 °F 51.3 °F 29.99 in Calm     94 % 0.00 in
07:16 53.2 °F 51.6 °F 29.99 in Calm     94 % 0.00 in
07:21 54.1 °F 52.5 °F 29.99 in Calm     94 % 0.00 in
07:26 55.8 °F 54.1 °F 30.00 in Calm     94 % 0.00 in
07:31 57.0 °F 55.0 °F 30.00 in Calm     93 % 0.00 in
07:36 57.6 °F 55.6 °F 30.00 in Calm     93 % 0.00 in
07:41 58.3 °F 55.9 °F 30.00 in Calm     92 % 0.00 in
07:46 59.4 °F 57.4 °F 30.00 in Calm   1.0 mph 93 % 0.00 in
07:47 59.5 °F 57.6 °F 30.00 in Calm   1.0 mph 93 % 0.00 in
07:52 61.2 °F 58.8 °F 30.00 in Calm   1.0 mph 92 % 0.00 in
07:57 62.2 °F 59.0 °F 30.01 in Calm   1.0 mph 89 % 0.00 in
08:02 63.0 °F 58.5 °F 30.01 in WSW 1.0 mph 2.0 mph 85 % 0.00 in
08:07 63.1 °F 57.9 °F 30.01 in Calm   2.0 mph 83 % 0.00 in
08:12 63.7 °F 57.4 °F 30.01 in Calm   3.0 mph 80 % 0.00 in
08:17 64.0 °F 56.3 °F 30.01 in NW 1.0 mph 3.0 mph 76 % 0.00 in
08:22 64.4 °F 56.3 °F 30.01 in Calm   3.0 mph 75 % 0.00 in
08:27 65.1 °F 57.4 °F 30.02 in Calm   3.0 mph 76 % 0.00 in
08:32 66.4 °F 57.9 °F 30.02 in WNW 1.0 mph 3.0 mph 74 % 0.00 in
08:37 66.6 °F 56.8 °F 30.02 in Calm   3.0 mph 71 % 0.00 in
08:42 67.3 °F 57.2 °F 30.02 in Calm   2.0 mph 70 % 0.00 in
08:47 67.8 °F 56.8 °F 30.02 in Calm   2.0 mph 68 % 0.00 in
08:52 68.2 °F 56.3 °F 30.02 in West 1.0 mph 2.0 mph 66 % 0.00 in
08:57 68.5 °F 56.7 °F 30.02 in Calm   2.0 mph 66 % 0.00 in
09:02 69.6 °F 57.7 °F 30.02 in Calm   2.0 mph 66 % 0.00 in
09:07 70.5 °F 57.4 °F 30.02 in Calm   2.0 mph 63 % 0.00 in
09:12 70.5 °F 56.5 °F 30.02 in Calm   2.0 mph 61 % 0.00 in
09:17 70.7 °F 55.6 °F 30.02 in Calm   2.0 mph 59 % 0.00 in
09:22 71.2 °F 55.8 °F 30.02 in SE 1.0 mph 3.0 mph 58 % 0.00 in
09:27 72.1 °F 56.5 °F 30.02 in Calm   3.0 mph 58 % 0.00 in
09:32 73.0 °F 55.9 °F 30.02 in Calm   3.0 mph 55 % 0.00 in
09:37 73.4 °F 56.7 °F 30.02 in SSW 2.0 mph 2.0 mph 56 % 0.00 in
09:42 74.3 °F 57.0 °F 30.02 in SSW 1.0 mph 2.0 mph 55 % 0.00 in
09:47 75.6 °F 57.2 °F 30.02 in SE 1.0 mph 3.0 mph 53 % 0.00 in
09:52 76.3 °F 56.8 °F 30.02 in East 2.0 mph 3.0 mph 51 % 0.00 in
09:54 76.5 °F 55.9 °F 30.02 in ESE 1.0 mph 3.0 mph 49 % 0.00 in
10:00 76.6 °F 57.7 °F 30.02 in SE 1.0 mph 3.0 mph 52 % 0.00 in
10:05 77.4 °F 55.6 °F 30.02 in SSW 1.0 mph 3.0 mph 47 % 0.00 in
10:10 77.5 °F 55.8 °F 30.02 in SSW 1.0 mph 3.0 mph 47 % 0.00 in
10:15 78.1 °F 56.3 °F 30.02 in Calm   5.0 mph 47 % 0.00 in
10:20 78.8 °F 56.3 °F 30.02 in Calm   5.0 mph 46 % 0.00 in
10:25 79.5 °F 54.5 °F 30.02 in South 2.0 mph 5.0 mph 42 % 0.00 in
10:29 79.5 °F 56.3 °F 30.02 in SW 2.0 mph 3.0 mph 45 % 0.00 in
10:31 79.9 °F 55.9 °F 30.02 in SSW 1.0 mph 3.0 mph 44 % 0.00 in
10:36 80.2 °F 54.3 °F 30.02 in SSE 3.0 mph 4.0 mph 41 % 0.00 in
10:41 79.5 °F 52.3 °F 30.02 in SSE 2.0 mph 6.0 mph 39 % 0.00 in
10:46 79.3 °F 53.6 °F 30.02 in South 4.0 mph 6.0 mph 41 % 0.00 in
10:47 79.3 °F 52.9 °F 30.02 in ESE 2.0 mph 6.0 mph 40 % 0.00 in
10:52 79.2 °F 54.7 °F 30.02 in Calm   7.0 mph 43 % 0.00 in
10:57 79.7 °F 54.5 °F 30.01 in NNE 1.0 mph 7.0 mph 42 % 0.00 in
11:02 80.1 °F 53.6 °F 30.02 in West 2.0 mph 7.0 mph 40 % 0.00 in
11:07 80.2 °F 52.3 °F 30.02 in WNW 1.0 mph 5.0 mph 38 % 0.00 in
11:12 80.4 °F 51.8 °F 30.02 in Calm   5.0 mph 37 % 0.00 in
11:17 80.4 °F 51.8 °F 30.02 in SSW 2.0 mph 6.0 mph 37 % 0.00 in
11:22 80.1 °F 54.3 °F 30.01 in Calm   6.0 mph 41 % 0.00 in
11:27 80.8 °F 53.6 °F 30.01 in SW 4.0 mph 6.0 mph 39 % 0.00 in
11:32 81.0 °F 51.4 °F 30.01 in South 2.0 mph 6.0 mph 36 % 0.00 in
11:37 81.7 °F 52.9 °F 30.01 in NNW 2.0 mph 6.0 mph 37 % 0.00 in
11:42 82.0 °F 51.6 °F 30.01 in SW 4.0 mph 6.0 mph 35 % 0.00 in
11:47 82.0 °F 54.0 °F 30.01 in West 1.0 mph 5.0 mph 38 % 0.00 in
11:52 81.0 °F 50.7 °F 30.01 in WSW 1.0 mph 5.0 mph 35 % 0.00 in
11:57 80.4 °F 50.2 °F 30.01 in NNW 2.0 mph 6.0 mph 35 % 0.00 in
12:02 80.2 °F 50.2 °F 30.00 in Calm   6.0 mph 35 % 0.00 in
12:07 80.4 °F 51.1 °F 30.00 in NNW 6.0 mph 6.0 mph 36 % 0.00 in
12:12 79.9 °F 52.0 °F 30.00 in NW 1.0 mph 7.0 mph 38 % 0.00 in
12:17 80.1 °F 50.7 °F 30.00 in Calm   7.0 mph 36 % 0.00 in
12:22 81.0 °F 52.9 °F 30.00 in NNW 3.0 mph 7.0 mph 38 % 0.00 in
12:27 80.8 °F 51.3 °F 30.00 in Calm   5.0 mph 36 % 0.00 in
12:32 81.9 °F 52.3 °F 30.00 in Calm   5.0 mph 36 % 0.00 in
12:37 82.2 °F 51.8 °F 30.00 in Calm   5.0 mph 35 % 0.00 in
12:42 82.0 °F 52.5 °F 30.00 in SSE 3.0 mph 5.0 mph 36 % 0.00 in
12:47 81.9 °F 52.3 °F 29.99 in Calm   5.0 mph 36 % 0.00 in
12:52 82.6 °F 52.9 °F 30.00 in WNW 3.0 mph 8.0 mph 36 % 0.00 in
12:57 82.0 °F 52.5 °F 29.99 in SE 2.0 mph 8.0 mph 36 % 0.00 in
13:02 82.4 °F 52.7 °F 29.99 in SSE 2.0 mph 8.0 mph 36 % 0.00 in
13:07 82.8 °F 53.1 °F 29.99 in SSE 3.0 mph 7.0 mph 36 % 0.00 in
13:12 82.9 °F 51.6 °F 29.99 in SE 2.0 mph 7.0 mph 34 % 0.00 in
13:17 82.8 °F 50.7 °F 29.99 in South 3.0 mph 9.0 mph 33 % 0.00 in
13:22 83.1 °F 51.8 °F 29.98 in ESE 2.0 mph 9.0 mph 34 % 0.00 in
13:27 83.1 °F 54.9 °F 29.98 in Calm   9.0 mph 38 % 0.00 in
13:32 83.8 °F 54.9 °F 29.98 in SSW 1.0 mph 6.0 mph 37 % 0.00 in
13:37 84.9 °F 55.0 °F 29.98 in SW 3.0 mph 5.0 mph 36 % 0.00 in
13:42 85.3 °F 56.1 °F 29.98 in WNW 4.0 mph 5.0 mph 37 % 0.00 in
13:47 84.4 °F 52.2 °F 29.98 in West 2.0 mph 6.0 mph 33 % 0.00 in
13:52 83.7 °F 51.4 °F 29.98 in WNW 1.0 mph 6.0 mph 33 % 0.00 in
13:57 83.7 °F 55.4 °F 29.97 in SSW 1.0 mph 6.0 mph 38 % 0.00 in
14:02 83.7 °F 52.3 °F 29.97 in WNW 2.0 mph 5.0 mph 34 % 0.00 in
14:07 83.1 °F 50.2 °F 29.97 in SSW 1.0 mph 5.0 mph 32 % 0.00 in
14:12 83.3 °F 53.6 °F 29.97 in West 2.0 mph 6.0 mph 36 % 0.00 in
14:17 83.8 °F 53.2 °F 29.97 in ENE 2.0 mph 6.0 mph 35 % 0.00 in
14:22 84.0 °F 53.4 °F 29.96 in SSE 5.0 mph 6.0 mph 35 % 0.00 in
14:27 83.8 °F 53.2 °F 29.96 in SW 5.0 mph 8.0 mph 35 % 0.00 in
14:32 84.0 °F 51.8 °F 29.96 in Calm   8.0 mph 33 % 0.00 in
14:37 84.4 °F 52.2 °F 29.96 in SE 2.0 mph 8.0 mph 33 % 0.00 in
14:42 84.0 °F 50.9 °F 29.96 in East 6.0 mph 7.0 mph 32 % 0.00 in
14:47 83.5 °F 50.5 °F 29.96 in South 2.0 mph 6.0 mph 32 % 0.00 in
14:52 83.5 °F 50.5 °F 29.95 in SE 3.0 mph 10.0 mph 32 % 0.00 in
14:57 83.7 °F 52.3 °F 29.95 in SSE 1.0 mph 10.0 mph 34 % 0.00 in
15:02 84.4 °F 52.9 °F 29.95 in NW 2.0 mph 10.0 mph 34 % 0.00 in
15:07 84.7 °F 51.6 °F 29.95 in South 1.0 mph 7.0 mph 32 % 0.00 in
15:12 84.9 °F 51.8 °F 29.94 in South 4.0 mph 9.0 mph 32 % 0.00 in
15:17 85.3 °F 53.8 °F 29.94 in SSW 3.0 mph 9.0 mph 34 % 0.00 in
15:22 85.1 °F 52.7 °F 29.94 in WNW 1.0 mph 9.0 mph 33 % 0.00 in
15:27 84.9 °F 52.5 °F 29.94 in Calm   7.0 mph 33 % 0.00 in
15:33 84.9 °F 52.5 °F 29.93 in West 2.0 mph 7.0 mph 33 % 0.00 in
15:38 84.9 °F 53.4 °F 29.93 in SW 3.0 mph 7.0 mph 34 % 0.00 in
15:43 85.3 °F 53.8 °F 29.93 in SW 4.0 mph 9.0 mph 34 % 0.00 in
15:48 84.9 °F 52.5 °F 29.93 in Calm   9.0 mph 33 % 0.00 in
15:53 85.5 °F 51.4 °F 29.92 in Calm   9.0 mph 31 % 0.00 in
15:58 85.3 °F 51.3 °F 29.92 in WNW 4.0 mph 8.0 mph 31 % 0.00 in
16:03 84.4 °F 52.2 °F 29.92 in NW 5.0 mph 5.0 mph 33 % 0.00 in
16:08 84.4 °F 52.9 °F 29.92 in WSW 2.0 mph 8.0 mph 34 % 0.00 in
16:13 84.2 °F 51.1 °F 29.91 in NW 5.0 mph 8.0 mph 32 % 0.00 in
16:18 84.0 °F 51.8 °F 29.91 in NNW 1.0 mph 8.0 mph 33 % 0.00 in
16:23 84.0 °F 51.8 °F 29.91 in SE 3.0 mph 7.0 mph 33 % 0.00 in
16:28 84.4 °F 54.5 °F 29.91 in SSW 1.0 mph 6.0 mph 36 % 0.00 in
16:33 84.7 °F 51.6 °F 29.91 in West 1.0 mph 5.0 mph 32 % 0.00 in
16:38 84.6 °F 51.4 °F 29.91 in West 1.0 mph 9.0 mph 32 % 0.00 in
16:43 84.6 °F 52.3 °F 29.91 in Calm   9.0 mph 33 % 0.00 in
16:48 84.9 °F 51.8 °F 29.91 in SW 1.0 mph 9.0 mph 32 % 0.00 in
16:53 84.9 °F 53.4 °F 29.91 in South 1.0 mph 8.0 mph 34 % 0.00 in
16:58 84.7 °F 51.6 °F 29.90 in East 1.0 mph 8.0 mph 32 % 0.00 in
17:03 84.7 °F 51.6 °F 29.90 in SE 1.0 mph 5.0 mph 32 % 0.00 in
17:08 84.7 °F 52.5 °F 29.90 in SE 2.0 mph 6.0 mph 33 % 0.00 in
17:13 84.7 °F 52.5 °F 29.90 in SSW 3.0 mph 6.0 mph 33 % 0.00 in
17:18 84.9 °F 53.4 °F 29.90 in SSW 3.0 mph 6.0 mph 34 % 0.00 in
17:23 84.7 °F 50.7 °F 29.90 in SW 2.0 mph 6.0 mph 31 % 0.00 in
17:28 84.9 °F 51.8 °F 29.90 in Calm   6.0 mph 32 % 0.00 in
17:33 85.5 °F 52.2 °F 29.90 in NNE 3.0 mph 6.0 mph 32 % 0.00 in
17:38 85.6 °F 51.6 °F 29.90 in Calm   6.0 mph 31 % 0.00 in
17:43 85.6 °F 51.6 °F 29.89 in Calm   4.0 mph 31 % 0.00 in
17:48 85.3 °F 50.4 °F 29.89 in SSW 1.0 mph 4.0 mph 30 % 0.00 in
17:53 85.3 °F 51.3 °F 29.89 in Calm   6.0 mph 31 % 0.00 in
17:58 85.3 °F 51.3 °F 29.89 in North 1.0 mph 6.0 mph 31 % 0.00 in
18:03 84.9 °F 52.5 °F 29.89 in Calm   6.0 mph 33 % 0.00 in
18:08 85.3 °F 52.2 °F 29.89 in SSW 1.0 mph 4.0 mph 32 % 0.00 in
18:13 84.9 °F 51.8 °F 29.89 in SW 1.0 mph 4.0 mph 32 % 0.00 in
18:18 84.6 °F 50.5 °F 29.89 in South 1.0 mph 6.0 mph 31 % 0.00 in
18:23 84.4 °F 51.3 °F 29.89 in SSW 1.0 mph 6.0 mph 32 % 0.00 in
18:28 84.4 °F 51.3 °F 29.89 in SSE 2.0 mph 6.0 mph 32 % 0.00 in
18:33 84.4 °F 52.2 °F 29.89 in Calm   4.0 mph 33 % 0.00 in
18:39 84.7 °F 51.6 °F 29.89 in Calm   4.0 mph 32 % 0.00 in
18:44 84.7 °F 51.6 °F 29.89 in SSW 2.0 mph 4.0 mph 32 % 0.00 in
18:49 84.2 °F 52.0 °F 29.88 in SSW 2.0 mph 4.0 mph 33 % 0.00 in
18:54 83.8 °F 50.9 °F 29.88 in Calm   4.0 mph 32 % 0.00 in
18:59 84.4 °F 52.2 °F 29.88 in Calm   4.0 mph 33 % 0.00 in
19:04 84.4 °F 52.2 °F 29.88 in Calm   4.0 mph 33 % 0.00 in
19:09 84.6 °F 53.1 °F 29.88 in Calm   3.0 mph 34 % 0.00 in
19:14 83.8 °F 51.6 °F 29.88 in Calm   2.0 mph 33 % 0.00 in
19:19 82.9 °F 51.6 °F 29.88 in Calm   2.0 mph 34 % 0.00 in
19:24 82.0 °F 50.9 °F 29.88 in Calm   2.0 mph 34 % 0.00 in
19:29 81.3 °F 53.2 °F 29.88 in Calm   2.0 mph 38 % 0.00 in
19:34 80.6 °F 51.3 °F 29.88 in Calm   2.0 mph 36 % 0.00 in
19:39 80.1 °F 51.4 °F 29.88 in Calm   2.0 mph 37 % 0.00 in
19:44 79.5 °F 51.6 °F 29.89 in Calm   2.0 mph 38 % 0.00 in
19:49 79.2 °F 52.2 °F 29.89 in Calm   1.0 mph 39 % 0.00 in
19:54 78.8 °F 52.5 °F 29.89 in Calm   1.0 mph 40 % 0.00 in
19:59 78.3 °F 52.0 °F 29.89 in Calm   1.0 mph 40 % 0.00 in
20:04 77.7 °F 52.9 °F 29.89 in Calm   1.0 mph 42 % 0.00 in
20:09 77.2 °F 53.6 °F 29.89 in Calm     44 % 0.00 in
20:14 76.5 °F 52.9 °F 29.89 in Calm     44 % 0.00 in
20:19 75.9 °F 54.3 °F 29.89 in Calm     47 % 0.00 in
20:24 75.2 °F 53.6 °F 29.90 in Calm     47 % 0.00 in
20:29 74.5 °F 53.4 °F 29.90 in Calm     48 % 0.00 in
20:34 73.8 °F 53.4 °F 29.90 in Calm     49 % 0.00 in
20:39 73.2 °F 54.0 °F 29.90 in ESE 1.0 mph   51 % 0.00 in
20:44 73.6 °F 54.3 °F 29.90 in Calm   2.0 mph 51 % 0.00 in
20:49 73.9 °F 55.2 °F 29.91 in SE 1.0 mph 2.0 mph 52 % 0.00 in
20:54 74.7 °F 55.9 °F 29.91 in SE 2.0 mph 3.0 mph 52 % 0.00 in
20:59 75.0 °F 56.1 °F 29.91 in SE 1.0 mph 6.0 mph 52 % 0.00 in
21:04 75.2 °F 56.3 °F 29.91 in ESE 1.0 mph 6.0 mph 52 % 0.00 in
21:09 75.0 °F 56.1 °F 29.91 in SE 3.0 mph 6.0 mph 52 % 0.00 in
21:14 75.0 °F 56.7 °F 29.91 in ESE 4.0 mph 4.0 mph 53 % 0.00 in
21:19 75.2 °F 56.8 °F 29.92 in SSE 3.0 mph 7.0 mph 53 % 0.00 in
21:24 75.0 °F 56.7 °F 29.92 in SSE 6.0 mph 7.0 mph 53 % 0.00 in
21:29 74.7 °F 56.8 °F 29.92 in SSW 3.0 mph 7.0 mph 54 % 0.00 in
21:34 74.5 °F 56.7 °F 29.92 in South 4.0 mph 6.0 mph 54 % 0.00 in
21:39 74.5 °F 57.2 °F 29.92 in South 3.0 mph 6.0 mph 55 % 0.00 in
21:44 74.1 °F 56.8 °F 29.93 in SSE 2.0 mph 6.0 mph 55 % 0.00 in
21:49 73.9 °F 57.2 °F 29.93 in South 2.0 mph 6.0 mph 56 % 0.00 in
21:54 73.6 °F 57.4 °F 29.93 in ESE 2.0 mph 6.0 mph 57 % 0.00 in
21:59 73.2 °F 57.6 °F 29.93 in Calm   5.0 mph 58 % 0.00 in
22:04 73.0 °F 57.4 °F 29.93 in ESE 2.0 mph 3.0 mph 58 % 0.00 in
22:09 72.9 °F 57.7 °F 29.93 in SE 1.0 mph 3.0 mph 59 % 0.00 in
22:14 72.7 °F 57.6 °F 29.93 in South 3.0 mph 3.0 mph 59 % 0.00 in
22:19 72.7 °F 57.9 °F 29.93 in SSE 1.0 mph 5.0 mph 60 % 0.00 in
22:24 72.5 °F 57.7 °F 29.93 in SSE 3.0 mph 5.0 mph 60 % 0.00 in
22:30 72.3 °F 58.1 °F 29.93 in SE 2.0 mph 5.0 mph 61 % 0.00 in
22:35 72.1 °F 57.9 °F 29.93 in SW 3.0 mph 5.0 mph 61 % 0.00 in
22:40 72.1 °F 57.9 °F 29.93 in South 2.0 mph 5.0 mph 61 % 0.00 in
22:45 72.0 °F 57.7 °F 29.93 in SE 2.0 mph 5.0 mph 61 % 0.00 in
22:50 72.0 °F 58.3 °F 29.93 in SE 4.0 mph 6.0 mph 62 % 0.00 in
22:55 71.8 °F 58.1 °F 29.93 in SE 3.0 mph 6.0 mph 62 % 0.00 in
23:00 71.8 °F 58.5 °F 29.94 in SSW 2.0 mph 6.0 mph 63 % 0.00 in
23:05 71.4 °F 58.1 °F 29.94 in South 3.0 mph 4.0 mph 63 % 0.00 in
23:10 71.1 °F 58.3 °F 29.94 in South 1.0 mph 4.0 mph 64 % 0.00 in
23:15 70.9 °F 58.5 °F 29.94 in SSE 3.0 mph 3.0 mph 65 % 0.00 in
23:20 70.5 °F 58.1 °F 29.94 in SSW 2.0 mph 4.0 mph 65 % 0.00 in
23:25 70.5 °F 58.6 °F 29.94 in SSE 2.0 mph 4.0 mph 66 % 0.00 in
23:30 70.3 °F 58.5 °F 29.94 in SSW 1.0 mph 4.0 mph 66 % 0.00 in
23:35 70.2 °F 58.6 °F 29.94 in South 3.0 mph 4.0 mph 67 % 0.00 in
23:40 70.2 °F 58.6 °F 29.94 in SW 2.0 mph 3.0 mph 67 % 0.00 in
23:43 70.0 °F 58.5 °F 29.94 in SSW 2.0 mph 3.0 mph 67 % 0.00 in
23:48 69.8 °F 58.8 °F 29.94 in SSE 2.0 mph 4.0 mph 68 % 0.00 in
23:53 69.6 °F 59.0 °F 29.94 in South 1.0 mph 4.0 mph 69 % 0.00 in
23:58 69.6 °F 59.0 °F 29.94 in SSW 3.0 mph 4.0 mph 69 % 0.00 in
Spring, Texas: Villages of Bridgestone
Compliments of Weather Underground - 3 mb

Script developed by  Jim McMurry - jmcmurry@mwt.net Adapted for the template by  Wim van der Kuil - Leuven-Template.eu

You find our weather info also at:

UK Metoffice

WeatherCloud

Weather Underground

Mid-South Weather Network

AWEKAS

Citizen Weather Observer Program (CWOP)

HAMweather, WeatherForYou, PWS Weather

Equipment we use:

Weather-station
Davis Vantage Vue

Weather-program
Meteohub

Weather-server
Debian 7.9 x86 (Guest)

Provider
DreamHost

Davis Vantage Vue

Meteohub

Debian 7.9 x86 (Guest)

DreamHost